sensor_id;sensor_type;location;lat;lon;timestamp;pressure;altitude;pressure_sealevel;temperature;humidity
61963;BME280;47927;42.646;23.096;2023-07-31T00:00:50;91949.09;;;21.89;59.03
61963;BME280;47927;42.646;23.096;2023-07-31T00:03:16;91954.31;;;21.92;58.93
61963;BME280;47927;42.646;23.096;2023-07-31T00:05:41;91946.34;;;21.92;59.21
61963;BME280;47927;42.646;23.096;2023-07-31T00:08:07;91951.19;;;21.94;59.41
61963;BME280;47927;42.646;23.096;2023-07-31T00:10:34;91941.47;;;21.59;60.27
61963;BME280;47927;42.646;23.096;2023-07-31T00:12:59;91931.78;;;21.66;60.21
61963;BME280;47927;42.646;23.096;2023-07-31T00:15:25;91934.34;;;21.78;59.78
61963;BME280;47927;42.646;23.096;2023-07-31T00:17:50;91924.25;;;21.64;59.98
61963;BME280;47927;42.646;23.096;2023-07-31T00:20:16;91916.59;;;21.66;59.92
61963;BME280;47927;42.646;23.096;2023-07-31T00:22:41;91906.34;;;21.77;59.68
61963;BME280;47927;42.646;23.096;2023-07-31T00:25:07;91905.38;;;21.62;59.00
61963;BME280;47927;42.646;23.096;2023-07-31T00:27:33;91902.88;;;21.58;60.05
61963;BME280;47927;42.646;23.096;2023-07-31T00:29:58;91890.69;;;21.70;59.61
61963;BME280;47927;42.646;23.096;2023-07-31T00:32:25;91891.03;;;21.50;60.09
61963;BME280;47927;42.646;23.096;2023-07-31T00:34:50;91900.44;;;21.42;60.29
61963;BME280;47927;42.646;23.096;2023-07-31T00:37:15;91901.91;;;21.43;60.28
61963;BME280;47927;42.646;23.096;2023-07-31T00:39:41;91885.09;;;21.37;60.19
61963;BME280;47927;42.646;23.096;2023-07-31T00:42:07;91895.94;;;21.30;60.70
61963;BME280;47927;42.646;23.096;2023-07-31T00:44:33;91896.03;;;21.26;60.94
61963;BME280;47927;42.646;23.096;2023-07-31T00:46:59;91892.84;;;20.87;62.01
61963;BME280;47927;42.646;23.096;2023-07-31T00:49:26;91898.88;;;21.10;61.79
61963;BME280;47927;42.646;23.096;2023-07-31T00:51:52;91898.13;;;21.31;60.76
61963;BME280;47927;42.646;23.096;2023-07-31T00:54:18;91877.53;;;21.35;60.29
61963;BME280;47927;42.646;23.096;2023-07-31T00:56:45;91891.97;;;21.34;60.58
61963;BME280;47927;42.646;23.096;2023-07-31T00:59:11;91900.72;;;21.22;61.47
61963;BME280;47927;42.646;23.096;2023-07-31T01:01:37;91892.59;;;21.16;62.15
61963;BME280;47927;42.646;23.096;2023-07-31T01:04:03;91887.63;;;21.19;62.55
61963;BME280;47927;42.646;23.096;2023-07-31T01:06:55;91889.03;;;21.10;63.09
61963;BME280;47927;42.646;23.096;2023-07-31T01:11:57;91879.84;;;21.24;63.17
61963;BME280;47927;42.646;23.096;2023-07-31T01:14:25;91860.84;;;20.94;63.24
61963;BME280;47927;42.646;23.096;2023-07-31T01:16:51;91880.59;;;21.03;63.95
61963;BME280;47927;42.646;23.096;2023-07-31T01:19:21;91883.22;;;21.03;63.48
61963;BME280;47927;42.646;23.096;2023-07-31T01:27:56;91890.38;;;21.68;61.57
61963;BME280;47927;42.646;23.096;2023-07-31T01:30:28;91880.13;;;21.79;61.14
61963;BME280;47927;42.646;23.096;2023-07-31T01:32:59;91884.41;;;21.46;61.62
61963;BME280;47927;42.646;23.096;2023-07-31T01:35:27;91870.50;;;20.88;63.63
61963;BME280;47927;42.646;23.096;2023-07-31T01:37:53;91878.84;;;21.31;62.85
61963;BME280;47927;42.646;23.096;2023-07-31T01:40:19;91886.00;;;21.43;62.50
61963;BME280;47927;42.646;23.096;2023-07-31T01:42:45;91890.47;;;21.55;62.10
61963;BME280;47927;42.646;23.096;2023-07-31T01:45:11;91887.66;;;21.81;61.35
61963;BME280;47927;42.646;23.096;2023-07-31T01:47:36;91886.13;;;21.71;61.76
61963;BME280;47927;42.646;23.096;2023-07-31T01:50:02;91883.41;;;21.83;60.95
61963;BME280;47927;42.646;23.096;2023-07-31T01:52:28;91875.16;;;21.91;60.98
61963;BME280;47927;42.646;23.096;2023-07-31T01:54:55;91874.63;;;21.65;61.54
61963;BME280;47927;42.646;23.096;2023-07-31T01:57:20;91885.03;;;21.59;61.55
61963;BME280;47927;42.646;23.096;2023-07-31T01:59:46;91881.34;;;21.56;61.65
61963;BME280;47927;42.646;23.096;2023-07-31T02:02:12;91889.56;;;21.49;62.08
61963;BME280;47927;42.646;23.096;2023-07-31T02:04:38;91885.94;;;21.34;62.12
61963;BME280;47927;42.646;23.096;2023-07-31T02:07:05;91881.94;;;21.07;63.42
61963;BME280;47927;42.646;23.096;2023-07-31T02:09:31;91880.28;;;21.01;63.63
61963;BME280;47927;42.646;23.096;2023-07-31T02:11:58;91874.25;;;21.00;63.63
61963;BME280;47927;42.646;23.096;2023-07-31T02:14:24;91875.97;;;21.16;62.91
61963;BME280;47927;42.646;23.096;2023-07-31T02:16:49;91891.63;;;21.45;62.40
61963;BME280;47927;42.646;23.096;2023-07-31T02:19:15;91888.97;;;21.45;62.27
61963;BME280;47927;42.646;23.096;2023-07-31T02:21:41;91890.47;;;21.55;61.74
61963;BME280;47927;42.646;23.096;2023-07-31T02:24:06;91883.34;;;21.74;61.38
61963;BME280;47927;42.646;23.096;2023-07-31T02:28:57;91895.75;;;21.77;61.02
61963;BME280;47927;42.646;23.096;2023-07-31T02:31:23;91883.13;;;21.91;60.68
61963;BME280;47927;42.646;23.096;2023-07-31T02:33:48;91887.25;;;22.01;60.46
61963;BME280;47927;42.646;23.096;2023-07-31T02:36:14;91894.09;;;22.11;60.04
61963;BME280;47927;42.646;23.096;2023-07-31T02:38:40;91887.44;;;22.06;60.08
61963;BME280;47927;42.646;23.096;2023-07-31T02:41:05;91897.13;;;22.00;60.28
61963;BME280;47927;42.646;23.096;2023-07-31T02:43:31;91909.44;;;22.16;60.23
61963;BME280;47927;42.646;23.096;2023-07-31T02:45:56;91905.06;;;22.22;59.84
61963;BME280;47927;42.646;23.096;2023-07-31T02:48:23;91909.34;;;22.29;59.69
61963;BME280;47927;42.646;23.096;2023-07-31T02:50:48;91901.81;;;22.27;59.76
61963;BME280;47927;42.646;23.096;2023-07-31T02:53:14;91903.47;;;22.34;59.75
61963;BME280;47927;42.646;23.096;2023-07-31T02:55:40;91909.66;;;22.40;59.36
61963;BME280;47927;42.646;23.096;2023-07-31T02:58:06;91918.34;;;22.41;59.33
61963;BME280;47927;42.646;23.096;2023-07-31T03:00:32;91910.41;;;22.41;59.44
61963;BME280;47927;42.646;23.096;2023-07-31T03:02:57;91889.41;;;22.24;60.09
61963;BME280;47927;42.646;23.096;2023-07-31T03:05:23;91898.88;;;22.35;59.77
61963;BME280;47927;42.646;23.096;2023-07-31T03:07:48;91890.75;;;22.29;59.30
61963;BME280;47927;42.646;23.096;2023-07-31T03:10:14;91905.75;;;22.14;59.69
61963;BME280;47927;42.646;23.096;2023-07-31T03:12:40;91912.91;;;22.04;59.46
61963;BME280;47927;42.646;23.096;2023-07-31T03:15:06;91911.09;;;21.92;59.87
61963;BME280;47927;42.646;23.096;2023-07-31T03:17:32;91914.38;;;21.65;60.54
61963;BME280;47927;42.646;23.096;2023-07-31T03:19:58;91913.09;;;21.69;59.73
61963;BME280;47927;42.646;23.096;2023-07-31T03:22:23;91916.25;;;21.55;60.50
61963;BME280;47927;42.646;23.096;2023-07-31T03:24:50;91918.56;;;21.75;60.01
61963;BME280;47927;42.646;23.096;2023-07-31T03:27:15;91918.78;;;21.58;60.10
61963;BME280;47927;42.646;23.096;2023-07-31T03:29:41;91915.75;;;21.69;60.01
61963;BME280;47927;42.646;23.096;2023-07-31T03:32:06;91918.59;;;21.53;60.30
61963;BME280;47927;42.646;23.096;2023-07-31T03:34:51;91922.84;;;21.28;61.14
61963;BME280;47927;42.646;23.096;2023-07-31T03:37:16;91923.25;;;21.39;60.82
61963;BME280;47927;42.646;23.096;2023-07-31T03:39:42;91923.84;;;21.66;59.76
61963;BME280;47927;42.646;23.096;2023-07-31T03:42:07;91917.25;;;21.48;60.19
61963;BME280;47927;42.646;23.096;2023-07-31T03:44:33;91929.94;;;21.53;60.30
61963;BME280;47927;42.646;23.096;2023-07-31T03:46:58;91933.34;;;21.54;60.25
61963;BME280;47927;42.646;23.096;2023-07-31T03:49:24;91937.53;;;21.73;60.11
61963;BME280;47927;42.646;23.096;2023-07-31T03:51:49;91936.69;;;21.76;59.94
61963;BME280;47927;42.646;23.096;2023-07-31T03:54:15;91946.31;;;21.61;60.33
61963;BME280;47927;42.646;23.096;2023-07-31T03:56:40;91937.81;;;21.66;60.38
61963;BME280;47927;42.646;23.096;2023-07-31T03:59:06;91936.91;;;21.60;60.44
61963;BME280;47927;42.646;23.096;2023-07-31T04:01:32;91941.66;;;21.74;60.19
61963;BME280;47927;42.646;23.096;2023-07-31T04:03:57;91943.41;;;21.99;59.54
61963;BME280;47927;42.646;23.096;2023-07-31T04:06:23;91949.72;;;21.93;59.52
61963;BME280;47927;42.646;23.096;2023-07-31T04:08:49;91945.69;;;22.10;59.36
61963;BME280;47927;42.646;23.096;2023-07-31T04:11:14;91941.75;;;22.24;58.79
61963;BME280;47927;42.646;23.096;2023-07-31T04:13:40;91938.94;;;22.27;58.83
61963;BME280;47927;42.646;23.096;2023-07-31T04:16:06;91959.63;;;22.33;58.93
61963;BME280;47927;42.646;23.096;2023-07-31T04:18:31;91952.13;;;22.40;59.16
61963;BME280;47927;42.646;23.096;2023-07-31T04:20:58;91952.13;;;22.40;58.75
61963;BME280;47927;42.646;23.096;2023-07-31T04:23:24;91958.91;;;22.41;58.58
61963;BME280;47927;42.646;23.096;2023-07-31T04:25:50;91964.97;;;22.60;58.41
61963;BME280;47927;42.646;23.096;2023-07-31T04:28:16;91963.69;;;22.65;58.50
61963;BME280;47927;42.646;23.096;2023-07-31T04:30:42;91964.56;;;22.62;58.41
61963;BME280;47927;42.646;23.096;2023-07-31T04:33:07;91968.81;;;22.59;58.27
61963;BME280;47927;42.646;23.096;2023-07-31T04:35:33;91962.09;;;22.27;59.07
61963;BME280;47927;42.646;23.096;2023-07-31T04:37:59;91959.50;;;22.55;58.70
61963;BME280;47927;42.646;23.096;2023-07-31T04:40:24;91962.50;;;22.66;57.86
61963;BME280;47927;42.646;23.096;2023-07-31T04:42:50;91953.22;;;22.80;57.42
61963;BME280;47927;42.646;23.096;2023-07-31T04:45:16;91956.94;;;23.19;56.65
61963;BME280;47927;42.646;23.096;2023-07-31T04:47:41;91954.84;;;22.77;57.15
61963;BME280;47927;42.646;23.096;2023-07-31T04:50:07;91951.28;;;22.71;57.47
61963;BME280;47927;42.646;23.096;2023-07-31T04:52:33;91951.34;;;22.30;58.15
61963;BME280;47927;42.646;23.096;2023-07-31T04:54:59;91961.66;;;22.19;58.68
61963;BME280;47927;42.646;23.096;2023-07-31T04:57:24;91949.50;;;22.59;56.96
61963;BME280;47927;42.646;23.096;2023-07-31T04:59:50;91949.84;;;22.79;57.37
61963;BME280;47927;42.646;23.096;2023-07-31T05:02:15;91955.63;;;22.96;56.41
61963;BME280;47927;42.646;23.096;2023-07-31T05:04:41;91953.66;;;23.52;55.35
61963;BME280;47927;42.646;23.096;2023-07-31T05:07:06;91953.53;;;24.16;54.64
61963;BME280;47927;42.646;23.096;2023-07-31T05:09:32;91957.34;;;24.15;53.20
61963;BME280;47927;42.646;23.096;2023-07-31T05:11:57;91951.22;;;24.42;52.66
61963;BME280;47927;42.646;23.096;2023-07-31T05:14:23;91944.84;;;24.40;52.39
61963;BME280;47927;42.646;23.096;2023-07-31T05:16:48;91958.59;;;24.38;51.42
61963;BME280;47927;42.646;23.096;2023-07-31T05:19:14;91957.84;;;24.38;51.46
61963;BME280;47927;42.646;23.096;2023-07-31T05:21:40;91945.44;;;24.44;51.59
61963;BME280;47927;42.646;23.096;2023-07-31T05:24:06;91961.94;;;26.18;48.45
61963;BME280;47927;42.646;23.096;2023-07-31T05:26:32;91968.22;;;29.17;41.37
61963;BME280;47927;42.646;23.096;2023-07-31T05:28:57;91969.19;;;31.22;37.13
61963;BME280;47927;42.646;23.096;2023-07-31T05:31:23;91962.13;;;33.92;32.74
61963;BME280;47927;42.646;23.096;2023-07-31T05:33:50;91973.50;;;35.82;29.34
61963;BME280;47927;42.646;23.096;2023-07-31T05:36:16;91969.19;;;37.21;26.39
61963;BME280;47927;42.646;23.096;2023-07-31T05:38:42;91971.03;;;38.44;23.92
61963;BME280;47927;42.646;23.096;2023-07-31T05:41:12;91966.66;;;38.87;22.85
61963;BME280;47927;42.646;23.096;2023-07-31T05:43:37;91973.59;;;39.52;22.42
61963;BME280;47927;42.646;23.096;2023-07-31T05:46:03;91978.56;;;40.69;21.38
61963;BME280;47927;42.646;23.096;2023-07-31T05:48:28;91978.63;;;41.73;19.61
61963;BME280;47927;42.646;23.096;2023-07-31T05:50:54;91970.44;;;42.00;18.35
61963;BME280;47927;42.646;23.096;2023-07-31T05:53:19;91982.41;;;42.69;18.00
61963;BME280;47927;42.646;23.096;2023-07-31T05:55:45;91979.47;;;43.04;17.06
61963;BME280;47927;42.646;23.096;2023-07-31T05:58:10;91981.81;;;42.61;17.66
61963;BME280;47927;42.646;23.096;2023-07-31T06:00:36;91981.66;;;42.59;17.35
61963;BME280;47927;42.646;23.096;2023-07-31T06:03:01;91981.97;;;43.48;16.61
61963;BME280;47927;42.646;23.096;2023-07-31T06:05:27;91986.38;;;44.62;16.41
61963;BME280;47927;42.646;23.096;2023-07-31T06:07:55;91983.09;;;45.07;15.11
61963;BME280;47927;42.646;23.096;2023-07-31T06:10:20;91978.53;;;43.47;16.72
61963;BME280;47927;42.646;23.096;2023-07-31T06:12:46;91980.53;;;43.28;17.14
61963;BME280;47927;42.646;23.096;2023-07-31T06:15:11;91984.25;;;39.02;19.95
61963;BME280;47927;42.646;23.096;2023-07-31T06:17:37;91981.59;;;37.81;22.23
61963;BME280;47927;42.646;23.096;2023-07-31T06:20:03;91989.00;;;35.61;25.04
61963;BME280;47927;42.646;23.096;2023-07-31T06:22:31;91987.94;;;33.31;27.64
61963;BME280;47927;42.646;23.096;2023-07-31T06:24:57;91983.47;;;32.35;29.05
61963;BME280;47927;42.646;23.096;2023-07-31T06:27:23;91993.19;;;31.72;30.48
61963;BME280;47927;42.646;23.096;2023-07-31T06:29:49;91985.50;;;30.15;32.60
61963;BME280;47927;42.646;23.096;2023-07-31T06:32:14;91986.69;;;29.69;34.02
61963;BME280;47927;42.646;23.096;2023-07-31T06:34:40;91986.00;;;29.14;33.98
61963;BME280;47927;42.646;23.096;2023-07-31T06:37:05;91988.38;;;28.58;35.15
61963;BME280;47927;42.646;23.096;2023-07-31T06:39:32;91990.25;;;28.46;35.85
61963;BME280;47927;42.646;23.096;2023-07-31T06:41:58;91990.63;;;27.76;37.15
61963;BME280;47927;42.646;23.096;2023-07-31T06:44:24;91988.94;;;28.04;37.31
61963;BME280;47927;42.646;23.096;2023-07-31T06:46:51;91983.94;;;27.65;37.33
61963;BME280;47927;42.646;23.096;2023-07-31T06:49:16;91987.94;;;27.49;37.81
61963;BME280;47927;42.646;23.096;2023-07-31T06:51:42;91989.84;;;27.69;37.44
61963;BME280;47927;42.646;23.096;2023-07-31T06:54:08;91987.03;;;27.79;38.30
61963;BME280;47927;42.646;23.096;2023-07-31T06:56:34;91987.09;;;27.64;38.56
61963;BME280;47927;42.646;23.096;2023-07-31T06:58:59;91984.66;;;27.40;37.67
61963;BME280;47927;42.646;23.096;2023-07-31T07:01:25;91990.22;;;27.83;37.35
61963;BME280;47927;42.646;23.096;2023-07-31T07:03:51;91985.09;;;27.59;37.39
61963;BME280;47927;42.646;23.096;2023-07-31T07:06:17;91985.03;;;31.95;30.71
61963;BME280;47927;42.646;23.096;2023-07-31T07:08:43;91989.50;;;35.46;24.86
61963;BME280;47927;42.646;23.096;2023-07-31T07:11:08;91980.09;;;38.39;22.58
61963;BME280;47927;42.646;23.096;2023-07-31T07:13:34;91986.38;;;40.72;19.27
61963;BME280;47927;42.646;23.096;2023-07-31T07:15:59;91976.81;;;41.58;18.09
61963;BME280;47927;42.646;23.096;2023-07-31T07:18:25;91978.75;;;42.20;17.32
61963;BME280;47927;42.646;23.096;2023-07-31T07:20:51;91987.63;;;42.74;17.26
61963;BME280;47927;42.646;23.096;2023-07-31T07:23:17;91988.88;;;44.07;15.76
61963;BME280;47927;42.646;23.096;2023-07-31T07:25:44;91979.84;;;40.18;18.79
61963;BME280;47927;42.646;23.096;2023-07-31T07:28:10;91983.47;;;39.32;20.02
61963;BME280;47927;42.646;23.096;2023-07-31T07:30:36;91979.47;;;37.14;21.96
61963;BME280;47927;42.646;23.096;2023-07-31T07:33:01;91986.06;;;35.46;23.63
61963;BME280;47927;42.646;23.096;2023-07-31T07:35:27;91989.00;;;34.36;25.74
61963;BME280;47927;42.646;23.096;2023-07-31T07:37:52;91988.25;;;34.54;24.90
61963;BME280;47927;42.646;23.096;2023-07-31T07:40:19;91981.63;;;34.36;25.11
61963;BME280;47927;42.646;23.096;2023-07-31T07:42:45;91991.31;;;37.25;22.07
61963;BME280;47927;42.646;23.096;2023-07-31T07:45:10;91997.69;;;39.07;19.90
61963;BME280;47927;42.646;23.096;2023-07-31T07:47:36;91984.78;;;41.29;17.67
61963;BME280;47927;42.646;23.096;2023-07-31T07:50:01;91986.03;;;41.80;16.75
61963;BME280;47927;42.646;23.096;2023-07-31T07:52:27;92000.47;;;42.35;16.55
61963;BME280;47927;42.646;23.096;2023-07-31T07:54:53;92000.41;;;39.78;19.65
61963;BME280;47927;42.646;23.096;2023-07-31T07:57:18;92008.16;;;40.55;18.17
61963;BME280;47927;42.646;23.096;2023-07-31T07:59:44;92003.09;;;42.16;16.76
61963;BME280;47927;42.646;23.096;2023-07-31T08:02:10;92007.00;;;42.49;16.54
61963;BME280;47927;42.646;23.096;2023-07-31T08:04:35;92002.22;;;41.51;17.32
61963;BME280;47927;42.646;23.096;2023-07-31T08:07:01;92012.06;;;42.26;16.94
61963;BME280;47927;42.646;23.096;2023-07-31T08:09:26;92014.97;;;43.11;16.11
61963;BME280;47927;42.646;23.096;2023-07-31T08:11:52;92005.94;;;43.67;15.64
61963;BME280;47927;42.646;23.096;2023-07-31T08:14:17;92015.09;;;41.58;16.68
61963;BME280;47927;42.646;23.096;2023-07-31T08:16:43;92005.69;;;41.52;16.69
61963;BME280;47927;42.646;23.096;2023-07-31T08:19:08;92002.47;;;42.34;16.17
61963;BME280;47927;42.646;23.096;2023-07-31T08:21:34;92003.47;;;43.52;15.25
61963;BME280;47927;42.646;23.096;2023-07-31T08:23:59;92006.84;;;44.71;14.90
61963;BME280;47927;42.646;23.096;2023-07-31T08:26:25;92003.47;;;43.42;14.71
61963;BME280;47927;42.646;23.096;2023-07-31T08:28:50;92000.91;;;42.14;16.50
61963;BME280;47927;42.646;23.096;2023-07-31T08:31:16;92011.34;;;40.11;18.62
61963;BME280;47927;42.646;23.096;2023-07-31T08:33:41;92002.19;;;37.25;20.42
61963;BME280;47927;42.646;23.096;2023-07-31T08:36:07;92006.78;;;35.03;23.03
61963;BME280;47927;42.646;23.096;2023-07-31T08:38:32;92007.97;;;35.08;23.94
61963;BME280;47927;42.646;23.096;2023-07-31T08:40:58;92002.75;;;37.31;21.74
61963;BME280;47927;42.646;23.096;2023-07-31T08:43:26;92006.97;;;38.89;19.47
61963;BME280;47927;42.646;23.096;2023-07-31T08:45:52;92006.16;;;39.90;18.74
61963;BME280;47927;42.646;23.096;2023-07-31T08:48:19;91998.91;;;40.25;18.78
61963;BME280;47927;42.646;23.096;2023-07-31T08:50:45;92000.94;;;41.17;17.14
61963;BME280;47927;42.646;23.096;2023-07-31T08:53:10;92002.53;;;41.73;16.67
61963;BME280;47927;42.646;23.096;2023-07-31T08:55:38;92000.38;;;41.71;16.36
61963;BME280;47927;42.646;23.096;2023-07-31T08:58:04;91999.66;;;42.52;16.00
61963;BME280;47927;42.646;23.096;2023-07-31T09:00:34;91999.19;;;42.73;15.12
61963;BME280;47927;42.646;23.096;2023-07-31T09:03:09;91997.78;;;42.91;15.04
61963;BME280;47927;42.646;23.096;2023-07-31T09:05:36;91994.38;;;42.64;15.65
61963;BME280;47927;42.646;23.096;2023-07-31T09:08:03;91991.69;;;42.83;15.56
61963;BME280;47927;42.646;23.096;2023-07-31T09:10:29;92002.56;;;41.82;16.40
61963;BME280;47927;42.646;23.096;2023-07-31T09:12:55;91985.84;;;42.60;15.60
61963;BME280;47927;42.646;23.096;2023-07-31T09:15:21;91997.28;;;40.47;17.63
61963;BME280;47927;42.646;23.096;2023-07-31T09:17:59;91997.38;;;40.57;17.02
61963;BME280;47927;42.646;23.096;2023-07-31T09:20:25;91995.28;;;39.11;18.39
61963;BME280;47927;42.646;23.096;2023-07-31T09:22:51;91982.31;;;37.89;19.59
61963;BME280;47927;42.646;23.096;2023-07-31T09:25:24;91984.00;;;38.07;19.71
61963;BME280;47927;42.646;23.096;2023-07-31T09:27:56;91987.53;;;39.00;19.36
61963;BME280;47927;42.646;23.096;2023-07-31T09:30:22;91981.97;;;39.46;18.44
61963;BME280;47927;42.646;23.096;2023-07-31T09:32:49;91983.38;;;40.03;17.65
61963;BME280;47927;42.646;23.096;2023-07-31T09:35:31;91986.75;;;40.94;16.37
61963;BME280;47927;42.646;23.096;2023-07-31T09:38:09;91982.19;;;41.66;16.84
61963;BME280;47927;42.646;23.096;2023-07-31T09:40:36;91977.44;;;41.32;16.67
61963;BME280;47927;42.646;23.096;2023-07-31T09:43:04;91982.97;;;40.39;17.04
61963;BME280;47927;42.646;23.096;2023-07-31T09:45:34;91980.94;;;39.18;18.52
61963;BME280;47927;42.646;23.096;2023-07-31T09:48:01;91980.78;;;39.16;18.95
61963;BME280;47927;42.646;23.096;2023-07-31T09:50:27;91980.25;;;38.34;19.19
61963;BME280;47927;42.646;23.096;2023-07-31T09:52:54;91980.75;;;37.94;20.04
61963;BME280;47927;42.646;23.096;2023-07-31T09:55:19;91986.88;;;36.57;21.28
61963;BME280;47927;42.646;23.096;2023-07-31T09:57:49;91983.50;;;35.27;22.87
61963;BME280;47927;42.646;23.096;2023-07-31T10:00:16;91971.84;;;35.79;22.78
61963;BME280;47927;42.646;23.096;2023-07-31T10:02:45;91975.25;;;36.14;21.82
61963;BME280;47927;42.646;23.096;2023-07-31T10:05:13;91968.88;;;35.70;22.48
61963;BME280;47927;42.646;23.096;2023-07-31T10:07:43;91951.22;;;35.02;23.10
61963;BME280;47927;42.646;23.096;2023-07-31T10:10:08;91969.41;;;34.30;23.75
61963;BME280;47927;42.646;23.096;2023-07-31T10:12:35;91960.81;;;34.31;23.87
61963;BME280;47927;42.646;23.096;2023-07-31T10:15:02;91954.97;;;34.99;23.53
61963;BME280;47927;42.646;23.096;2023-07-31T10:17:29;91956.69;;;35.50;22.04
61963;BME280;47927;42.646;23.096;2023-07-31T10:19:56;91962.50;;;36.22;20.72
61963;BME280;47927;42.646;23.096;2023-07-31T10:22:23;91974.03;;;36.15;21.25
61963;BME280;47927;42.646;23.096;2023-07-31T10:24:50;91961.53;;;36.54;19.88
61963;BME280;47927;42.646;23.096;2023-07-31T10:27:15;91956.09;;;37.11;19.64
61963;BME280;47927;42.646;23.096;2023-07-31T10:29:43;91951.66;;;37.22;18.74
61963;BME280;47927;42.646;23.096;2023-07-31T10:32:10;91953.09;;;36.65;19.95
61963;BME280;47927;42.646;23.096;2023-07-31T10:34:39;91959.19;;;36.58;20.10
61963;BME280;47927;42.646;23.096;2023-07-31T10:39:57;91950.41;;;36.65;20.49
61963;BME280;47927;42.646;23.096;2023-07-31T10:42:31;91952.66;;;36.54;21.08
61963;BME280;47927;42.646;23.096;2023-07-31T10:44:59;91945.69;;;36.03;20.15
61963;BME280;47927;42.646;23.096;2023-07-31T10:47:25;91947.75;;;36.10;21.03
61963;BME280;47927;42.646;23.096;2023-07-31T10:49:51;91945.66;;;36.16;21.12
61963;BME280;47927;42.646;23.096;2023-07-31T10:52:21;91945.44;;;36.14;20.56
61963;BME280;47927;42.646;23.096;2023-07-31T10:57:57;91935.13;;;36.34;19.92
61963;BME280;47927;42.646;23.096;2023-07-31T11:00:27;91931.88;;;36.35;20.84
61963;BME280;47927;42.646;23.096;2023-07-31T11:05:49;91940.50;;;35.23;21.53
61963;BME280;47927;42.646;23.096;2023-07-31T11:08:26;91933.69;;;35.30;21.97
61963;BME280;47927;42.646;23.096;2023-07-31T11:13:50;91922.53;;;34.27;22.72
61963;BME280;47927;42.646;23.096;2023-07-31T11:16:22;91926.97;;;34.57;22.43
61963;BME280;47927;42.646;23.096;2023-07-31T11:18:48;91916.03;;;33.85;24.07
61963;BME280;47927;42.646;23.096;2023-07-31T11:21:16;91921.31;;;33.77;23.86
61963;BME280;47927;42.646;23.096;2023-07-31T11:23:50;91919.53;;;33.98;22.72
61963;BME280;47927;42.646;23.096;2023-07-31T11:26:17;91911.25;;;33.77;24.96
61963;BME280;47927;42.646;23.096;2023-07-31T11:28:43;91923.88;;;33.50;25.29
61963;BME280;47927;42.646;23.096;2023-07-31T11:31:09;91928.31;;;32.66;26.38
61963;BME280;47927;42.646;23.096;2023-07-31T11:33:36;91923.03;;;32.55;27.01
61963;BME280;47927;42.646;23.096;2023-07-31T11:36:02;91924.38;;;32.67;26.98
61963;BME280;47927;42.646;23.096;2023-07-31T11:38:30;91927.69;;;33.23;25.77
61963;BME280;47927;42.646;23.096;2023-07-31T11:41:05;91921.63;;;33.54;25.30
61963;BME280;47927;42.646;23.096;2023-07-31T11:43:31;91926.28;;;33.73;24.89
61963;BME280;47927;42.646;23.096;2023-07-31T11:45:58;91915.34;;;33.46;24.64
61963;BME280;47927;42.646;23.096;2023-07-31T11:48:28;91915.13;;;33.25;24.40
61963;BME280;47927;42.646;23.096;2023-07-31T11:50:58;91919.00;;;33.30;25.39
61963;BME280;47927;42.646;23.096;2023-07-31T11:53:40;91909.66;;;33.12;26.47
61963;BME280;47927;42.646;23.096;2023-07-31T11:56:08;91904.16;;;32.99;26.61
61963;BME280;47927;42.646;23.096;2023-07-31T11:58:36;91907.19;;;33.14;26.66
61963;BME280;47927;42.646;23.096;2023-07-31T12:01:03;91909.09;;;32.76;26.27
61963;BME280;47927;42.646;23.096;2023-07-31T12:03:31;91909.34;;;32.97;26.47
61963;BME280;47927;42.646;23.096;2023-07-31T12:05:58;91904.53;;;32.65;27.11
61963;BME280;47927;42.646;23.096;2023-07-31T12:08:24;91892.53;;;32.85;26.31
61963;BME280;47927;42.646;23.096;2023-07-31T12:10:51;91896.06;;;32.99;26.68
61963;BME280;47927;42.646;23.096;2023-07-31T12:13:26;91896.69;;;32.67;26.42
61963;BME280;47927;42.646;23.096;2023-07-31T12:15:56;91898.50;;;33.02;26.39
61963;BME280;47927;42.646;23.096;2023-07-31T12:18:24;91895.88;;;33.16;25.88
61963;BME280;47927;42.646;23.096;2023-07-31T12:20:59;91894.34;;;33.20;25.38
61963;BME280;47927;42.646;23.096;2023-07-31T12:23:30;91884.94;;;32.83;25.98
61963;BME280;47927;42.646;23.096;2023-07-31T12:28:35;91886.59;;;32.43;25.81
61963;BME280;47927;42.646;23.096;2023-07-31T12:31:02;91888.75;;;32.50;25.78
61963;BME280;47927;42.646;23.096;2023-07-31T12:33:32;91884.44;;;32.11;26.25
61963;BME280;47927;42.646;23.096;2023-07-31T12:36:01;91892.31;;;32.09;26.50
61963;BME280;47927;42.646;23.096;2023-07-31T12:38:27;91895.75;;;32.34;26.20
61963;BME280;47927;42.646;23.096;2023-07-31T12:40:52;91892.00;;;32.43;27.12
61963;BME280;47927;42.646;23.096;2023-07-31T12:43:18;91879.94;;;32.93;25.60
61963;BME280;47927;42.646;23.096;2023-07-31T12:45:43;91881.22;;;33.11;25.28
61963;BME280;47927;42.646;23.096;2023-07-31T12:48:09;91871.56;;;32.97;25.45
61963;BME280;47927;42.646;23.096;2023-07-31T12:50:35;91873.91;;;33.25;26.36
61963;BME280;47927;42.646;23.096;2023-07-31T12:53:02;91873.72;;;32.79;25.91
61963;BME280;47927;42.646;23.096;2023-07-31T12:55:29;91867.63;;;32.98;26.03
61963;BME280;47927;42.646;23.096;2023-07-31T12:57:55;91859.66;;;32.67;25.51
61963;BME280;47927;42.646;23.096;2023-07-31T13:00:21;91864.56;;;32.39;25.45
61963;BME280;47927;42.646;23.096;2023-07-31T13:02:46;91862.91;;;32.60;26.61
61963;BME280;47927;42.646;23.096;2023-07-31T13:05:12;91869.53;;;33.03;25.92
61963;BME280;47927;42.646;23.096;2023-07-31T13:07:39;91868.56;;;32.32;27.30
61963;BME280;47927;42.646;23.096;2023-07-31T13:10:05;91865.91;;;32.02;27.68
61963;BME280;47927;42.646;23.096;2023-07-31T13:12:31;91874.16;;;31.44;27.54